createdAt,value
2023-03-16T00:01:11.665Z,1.85
2023-03-16T00:04:14.992Z,1.88
2023-03-16T00:07:21.541Z,1.33
2023-03-16T00:10:27.323Z,1.90
2023-03-16T00:13:31.167Z,2.03
2023-03-16T00:16:36.309Z,2.25
2023-03-16T00:19:39.730Z,1.77
2023-03-16T00:22:43.025Z,2.15
2023-03-16T00:25:46.624Z,1.85
2023-03-16T00:28:49.892Z,2.08
2023-03-16T00:31:54.590Z,2.80
2023-03-16T00:34:58.180Z,2.42
2023-03-16T00:38:02.071Z,1.88
2023-03-16T00:41:05.965Z,1.80
2023-03-16T00:44:09.977Z,1.58
2023-03-16T00:47:15.240Z,1.90
2023-03-16T00:50:22.270Z,1.70
2023-03-16T00:53:26.194Z,1.70
2023-03-16T00:56:29.572Z,2.20
2023-03-16T00:59:36.505Z,1.80
2023-03-16T01:02:41.253Z,1.83
2023-03-16T01:05:45.562Z,1.70
2023-03-16T01:08:49.981Z,1.35
2023-03-16T01:11:54.466Z,1.80
2023-03-16T01:14:57.823Z,2.00
2023-03-16T01:18:04.843Z,1.58
2023-03-16T01:21:09.732Z,1.42
2023-03-16T01:24:13.310Z,1.75
2023-03-16T01:27:17.284Z,1.77
2023-03-16T01:30:21.332Z,1.60
2023-03-16T01:33:26.774Z,1.80
2023-03-16T01:36:32.729Z,1.73
2023-03-16T01:39:38.537Z,1.35
2023-03-16T01:42:47.866Z,1.33
2023-03-16T01:46:09.097Z,1.27
2023-03-16T01:49:20.702Z,1.17
2023-03-16T01:52:26.004Z,1.35
2023-03-16T01:55:29.335Z,1.10
2023-03-16T01:58:33.115Z,1.63
2023-03-16T02:01:36.866Z,1.45
2023-03-16T02:04:44.787Z,1.42
2023-03-16T02:07:52.333Z,1.48
2023-03-16T02:10:57.228Z,1.88
2023-03-16T02:14:11.240Z,1.08
2023-03-16T02:17:15.070Z,1.27
2023-03-16T02:20:26.634Z,1.42
2023-03-16T02:23:32.660Z,1.40
2023-03-16T02:26:39.235Z,1.33
2023-03-16T02:29:57.848Z,1.17
2023-03-16T02:33:04.978Z,0.95
2023-03-16T02:36:11.488Z,1.52
2023-03-16T02:39:15.971Z,1.10
2023-03-16T02:42:25.026Z,1.42
2023-03-16T02:45:33.295Z,1.30
2023-03-16T02:48:43.607Z,1.40
2023-03-16T02:51:51.892Z,1.05
2023-03-16T02:54:56.358Z,1.40
2023-03-16T02:57:59.739Z,1.15
2023-03-16T03:01:03.604Z,1.30
2023-03-16T03:04:10.758Z,1.85
2023-03-16T03:07:14.441Z,1.40
2023-03-16T03:10:33.810Z,1.30
2023-03-16T03:13:38.169Z,1.30
2023-03-16T03:16:46.888Z,1.58
2023-03-16T03:19:58.546Z,2.03
2023-03-16T03:23:02.927Z,1.55
2023-03-16T03:26:06.478Z,1.45
2023-03-16T03:29:10.622Z,1.15
2023-03-16T03:32:15.627Z,1.55
2023-03-16T03:35:21.560Z,1.08
2023-03-16T03:38:25.070Z,1.40
2023-03-16T03:41:29.044Z,1.13
2023-03-16T03:44:34.644Z,1.63
2023-03-16T03:47:38.265Z,1.17
2023-03-16T03:50:43.425Z,1.35
2023-03-16T03:54:03.218Z,1.25
2023-03-16T03:57:26.811Z,0.98
2023-03-16T04:00:30.940Z,1.50
2023-03-16T04:03:34.593Z,1.00
2023-03-16T04:06:39.336Z,1.17
2023-03-16T04:09:42.662Z,1.33
2023-03-16T04:12:53.536Z,1.48
2023-03-16T04:16:02.496Z,1.50
2023-03-16T04:19:10.013Z,1.52
2023-03-16T04:22:14.685Z,1.45
2023-03-16T04:25:19.405Z,1.60
2023-03-16T04:28:26.602Z,1.30
2023-03-16T04:31:30.332Z,1.35
2023-03-16T04:34:34.328Z,1.42
2023-03-16T04:37:42.236Z,1.05
2023-03-16T04:40:45.516Z,1.52
2023-03-16T04:43:54.234Z,1.23
2023-03-16T04:47:00.436Z,1.27
2023-03-16T04:50:12.301Z,1.20
2023-03-16T04:53:18.775Z,1.20
2023-03-16T04:56:27.071Z,1.60
2023-03-16T04:59:35.696Z,1.02
2023-03-16T05:02:52.726Z,1.20
2023-03-16T05:05:56.358Z,1.40
2023-03-16T05:09:08.292Z,1.50
2023-03-16T05:12:13.977Z,1.42
2023-03-16T05:15:19.724Z,1.15
2023-03-16T05:18:33.100Z,1.88
2023-03-16T05:21:38.552Z,1.30
2023-03-16T05:24:46.325Z,1.50
2023-03-16T05:27:50.573Z,1.50
2023-03-16T05:31:03.452Z,1.47
2023-03-16T05:34:14.539Z,1.70
2023-03-16T05:37:19.029Z,1.77
2023-03-16T05:40:24.329Z,1.40
2023-03-16T05:43:37.230Z,1.13
2023-03-16T05:46:40.687Z,1.77
2023-03-16T05:49:44.276Z,1.20
2023-03-16T05:52:57.903Z,1.60
2023-03-16T05:56:02.580Z,1.42
2023-03-16T05:59:09.272Z,1.55
2023-03-16T06:02:13.229Z,1.40
2023-03-16T06:05:17.635Z,1.52
2023-03-16T06:08:22.547Z,1.17
2023-03-16T06:11:29.468Z,1.52
2023-03-16T06:14:32.886Z,1.45
2023-03-16T06:17:37.400Z,1.25
2023-03-16T06:20:40.788Z,1.63
2023-03-16T06:23:44.287Z,1.20
2023-03-16T06:26:49.176Z,1.70
2023-03-16T06:29:54.444Z,1.38
2023-03-16T06:33:00.023Z,1.30
2023-03-16T06:36:03.724Z,1.33
2023-03-16T06:39:14.241Z,2.58
2023-03-16T06:42:20.520Z,2.15
2023-03-16T06:45:25.549Z,1.90
2023-03-16T06:48:32.147Z,1.67
2023-03-16T06:51:35.592Z,2.10
2023-03-16T06:54:39.486Z,2.25
2023-03-16T06:57:44.313Z,1.77
2023-03-16T07:00:48.279Z,2.25
2023-03-16T07:03:51.639Z,1.75
2023-03-16T07:07:03.337Z,1.83
2023-03-16T07:10:07.095Z,1.67
2023-03-16T07:13:11.751Z,1.50
2023-03-16T07:16:15.079Z,1.40
2023-03-16T07:19:18.340Z,1.63
2023-03-16T07:22:22.288Z,1.90
2023-03-16T07:25:38.965Z,1.50
2023-03-16T07:28:44.936Z,1.55
2023-03-16T07:31:53.753Z,1.88
2023-03-16T07:35:02.413Z,1.83
2023-03-16T07:38:15.694Z,1.17
2023-03-16T07:41:33.857Z,1.45
2023-03-16T07:45:01.651Z,1.38
2023-03-16T07:51:39.453Z,1.77
2023-03-16T07:55:21.035Z,1.55
2023-03-16T08:02:46.313Z,1.70
2023-03-16T08:06:20.220Z,2.28
2023-03-16T08:13:32.330Z,1.60
2023-03-16T08:16:48.407Z,1.30
2023-03-16T08:20:10.062Z,1.40
2023-03-16T08:23:22.695Z,1.55
2023-03-16T08:26:29.640Z,1.55
2023-03-16T08:39:06.064Z,1.50
2023-03-16T08:42:32.547Z,1.23
2023-03-16T08:46:08.769Z,1.50
2023-03-16T08:50:17.174Z,1.20
2023-03-16T08:53:41.050Z,1.02
2023-03-16T08:56:47.296Z,1.60
2023-03-16T09:00:56.584Z,1.50
2023-03-16T09:04:00.924Z,1.58
2023-03-16T09:07:09.910Z,1.00
2023-03-16T09:10:26.476Z,1.15
2023-03-16T09:13:33.567Z,1.02
2023-03-16T09:16:50.898Z,1.00
2023-03-16T09:20:08.085Z,0.80
2023-03-16T09:28:42.600Z,1.25
2023-03-16T09:31:51.439Z,1.00
2023-03-16T09:35:17.005Z,1.08
2023-03-16T09:47:41.139Z,1.45
2023-03-16T10:11:35.296Z,1.30
2023-03-16T10:14:43.352Z,0.93
2023-03-16T10:18:15.281Z,1.00
2023-03-16T10:21:19.845Z,1.08
2023-03-16T10:24:29.853Z,0.70
2023-03-16T10:27:36.721Z,0.85
2023-03-16T10:30:53.129Z,0.93
2023-03-16T10:33:58.346Z,0.80
2023-03-16T10:37:03.348Z,0.70
2023-03-16T10:40:12.136Z,0.65
2023-03-16T10:43:32.142Z,0.73
2023-03-16T10:46:39.766Z,0.90
2023-03-16T10:49:48.562Z,0.73
2023-03-16T10:52:53.166Z,0.77
2023-03-16T10:55:59.769Z,0.60
2023-03-16T10:59:15.133Z,0.82
2023-03-16T11:02:20.460Z,0.70
2023-03-16T11:05:29.506Z,0.85
2023-03-16T11:08:34.167Z,0.57
2023-03-16T11:11:37.998Z,0.52
2023-03-16T11:14:44.748Z,0.80
2023-03-16T11:17:51.257Z,0.57
2023-03-16T11:20:55.418Z,0.73
2023-03-16T11:23:58.803Z,0.55
2023-03-16T11:27:04.389Z,0.80
2023-03-16T11:30:13.666Z,1.00
2023-03-16T11:33:17.357Z,0.63
2023-03-16T11:36:29.863Z,0.80
2023-03-16T11:39:37.503Z,0.80
2023-03-16T11:42:43.962Z,0.40
2023-03-16T11:45:53.596Z,0.70
2023-03-16T11:49:01.843Z,0.60
2023-03-16T11:52:11.102Z,0.40
2023-03-16T11:55:28.891Z,0.63
2023-03-16T11:58:39.321Z,0.65
2023-03-16T12:01:59.833Z,0.52
2023-03-16T12:05:16.645Z,0.40
2023-03-16T12:08:26.844Z,0.50
2023-03-16T12:11:32.952Z,0.60
2023-03-16T12:14:38.704Z,0.40
2023-03-16T12:17:44.163Z,0.55
2023-03-16T12:20:53.881Z,0.50
2023-03-16T12:23:59.668Z,0.40
2023-03-16T12:27:03.525Z,0.40
2023-03-16T12:30:20.313Z,0.38
2023-03-16T12:33:28.862Z,0.40
2023-03-16T12:37:02.502Z,0.35
2023-03-16T12:40:11.410Z,0.60
2023-03-16T12:43:24.995Z,0.50
2023-03-16T12:46:31.452Z,0.43
2023-03-16T12:49:38.259Z,0.60
2023-03-16T12:52:43.070Z,0.30
2023-03-16T12:55:46.443Z,0.40
2023-03-16T12:58:50.977Z,0.47
2023-03-16T13:01:55.340Z,0.40
2023-03-16T13:05:01.628Z,0.50
2023-03-16T13:08:09.462Z,0.50
2023-03-16T13:11:14.577Z,0.43
2023-03-16T13:14:19.050Z,0.40
2023-03-16T13:17:29.821Z,0.55
2023-03-16T13:20:35.829Z,0.50
2023-03-16T13:23:54.711Z,0.68
2023-03-16T13:27:02.641Z,0.47
2023-03-16T13:30:18.173Z,0.50
2023-03-16T13:33:23.526Z,0.43
2023-03-16T13:36:29.584Z,0.47
2023-03-16T13:39:33.654Z,0.40
2023-03-16T13:42:38.550Z,0.35
2023-03-16T13:45:42.028Z,0.43
2023-03-16T13:48:46.321Z,0.43
2023-03-16T13:51:50.981Z,0.40
2023-03-16T13:54:54.947Z,0.40
2023-03-16T13:57:58.429Z,0.47
2023-03-16T14:01:03.362Z,0.60
2023-03-16T14:04:13.529Z,0.40
2023-03-16T14:07:19.033Z,0.50
2023-03-16T14:10:24.666Z,0.30
2023-03-16T14:13:34.013Z,0.50
2023-03-16T14:16:37.396Z,0.65
2023-03-16T14:19:45.576Z,0.50
2023-03-16T14:22:52.621Z,0.40
2023-03-16T14:25:56.233Z,0.50
2023-03-16T14:29:04.077Z,0.50
2023-03-16T14:32:20.528Z,0.60
2023-03-16T14:35:24.153Z,0.70
2023-03-16T14:38:33.318Z,0.30
2023-03-16T14:41:36.866Z,0.60
2023-03-16T14:44:40.503Z,0.65
2023-03-16T14:47:45.045Z,0.68
2023-03-16T14:50:49.147Z,0.30
2023-03-16T14:53:53.982Z,0.50
2023-03-16T14:57:00.106Z,0.60
2023-03-16T15:00:05.364Z,0.40
2023-03-16T15:03:10.182Z,0.47
2023-03-16T15:06:13.772Z,0.77
2023-03-16T15:09:27.844Z,0.60
2023-03-16T15:12:31.390Z,0.90
2023-03-16T15:15:35.448Z,0.55
2023-03-16T15:18:39.200Z,0.47
2023-03-16T15:21:42.500Z,0.77
2023-03-16T15:24:47.580Z,0.47
2023-03-16T15:27:50.952Z,0.50
2023-03-16T15:30:54.862Z,0.57
2023-03-16T15:33:58.314Z,0.70
2023-03-16T15:37:01.655Z,0.60
2023-03-16T15:40:16.080Z,0.80
2023-03-16T15:43:20.598Z,0.50
2023-03-16T15:46:24.003Z,1.10
2023-03-16T15:49:30.232Z,0.77
2023-03-16T15:52:37.935Z,0.50
2023-03-16T15:55:43.810Z,0.95
2023-03-16T15:58:47.860Z,1.00
2023-03-16T16:01:52.572Z,0.80
2023-03-16T16:04:56.071Z,1.00
2023-03-16T16:07:59.370Z,0.60
2023-03-16T16:11:09.238Z,0.73
2023-03-16T16:14:16.781Z,1.08
2023-03-16T16:17:36.514Z,0.80
2023-03-16T16:20:44.501Z,1.05
2023-03-16T16:23:48.799Z,0.75
2023-03-16T16:26:55.571Z,1.15
2023-03-16T16:29:59.715Z,1.02
2023-03-16T16:33:03.199Z,1.42
2023-03-16T16:36:08.240Z,0.90
2023-03-16T16:39:12.527Z,0.88
2023-03-16T16:42:18.519Z,0.88
2023-03-16T16:45:23.076Z,0.60
2023-03-16T16:48:32.606Z,0.90
2023-03-16T16:51:36.159Z,0.63
2023-03-16T16:54:39.716Z,0.70
2023-03-16T16:57:44.947Z,0.50
2023-03-16T17:00:53.471Z,0.50
2023-03-16T17:03:57.135Z,0.52
2023-03-16T17:07:03.407Z,0.70
2023-03-16T17:10:07.206Z,0.68
2023-03-16T17:13:19.161Z,0.57
2023-03-16T17:16:25.578Z,0.80
2023-03-16T17:19:29.643Z,0.90
2023-03-16T17:22:32.854Z,0.93
2023-03-16T17:25:36.186Z,0.70
2023-03-16T17:28:44.285Z,0.98
2023-03-16T17:31:47.630Z,0.68
2023-03-16T17:34:53.413Z,0.70
2023-03-16T17:37:56.945Z,0.50
2023-03-16T17:41:00.252Z,0.90
2023-03-16T17:44:06.926Z,0.80
2023-03-16T17:47:14.705Z,1.00
2023-03-16T17:50:19.938Z,0.98
2023-03-16T17:53:23.881Z,1.75
2023-03-16T17:56:28.620Z,0.68
2023-03-16T17:59:33.295Z,0.80
2023-03-16T18:02:45.549Z,0.90
2023-03-16T18:05:49.919Z,0.90
2023-03-16T18:08:53.661Z,0.90
2023-03-16T18:11:57.168Z,1.20
2023-03-16T18:15:02.351Z,1.10
2023-03-16T18:18:07.079Z,1.08
2023-03-16T18:21:11.540Z,1.10
2023-03-16T18:24:17.036Z,1.13
2023-03-16T18:27:21.036Z,1.13
2023-03-16T18:30:25.940Z,1.20
2023-03-16T18:33:30.947Z,0.82
2023-03-16T18:36:35.017Z,0.93
2023-03-16T18:39:38.381Z,0.88
2023-03-16T18:42:41.754Z,1.30
2023-03-16T18:45:46.826Z,1.33
2023-03-16T18:48:50.466Z,1.77
2023-03-16T18:51:55.171Z,1.23
2023-03-16T18:54:58.660Z,1.20
2023-03-16T18:58:02.047Z,1.63
2023-03-16T19:01:07.900Z,1.20
2023-03-16T19:04:19.801Z,1.30
2023-03-16T19:07:26.276Z,1.23
2023-03-16T19:10:32.352Z,1.60
2023-03-16T19:13:36.173Z,1.13
2023-03-16T19:16:40.956Z,1.08
2023-03-16T19:19:44.459Z,1.20
2023-03-16T19:22:49.209Z,1.10
2023-03-16T19:25:54.566Z,0.93
2023-03-16T19:28:58.090Z,0.98
2023-03-16T19:32:03.344Z,0.82
2023-03-16T19:35:09.185Z,0.85
2023-03-16T19:38:12.603Z,0.80
2023-03-16T19:41:22.523Z,1.05
2023-03-16T19:44:27.544Z,1.00
2023-03-16T19:47:34.544Z,1.35
2023-03-16T19:50:37.815Z,0.77
2023-03-16T19:53:42.374Z,1.10
2023-03-16T19:56:45.954Z,1.15
2023-03-16T19:59:50.655Z,1.40
2023-03-16T20:02:56.457Z,1.25
2023-03-16T20:06:01.356Z,1.20
2023-03-16T20:09:04.903Z,0.75
2023-03-16T20:12:08.806Z,1.30
2023-03-16T20:15:15.506Z,1.20
2023-03-16T20:18:20.294Z,0.80
2023-03-16T20:21:24.211Z,1.00
2023-03-16T20:24:28.828Z,1.33
2023-03-16T20:27:32.523Z,0.73
2023-03-16T20:30:35.887Z,0.98
2023-03-16T20:33:40.890Z,1.27
2023-03-16T20:36:44.361Z,0.82
2023-03-16T20:39:51.124Z,1.10
2023-03-16T20:42:55.392Z,0.98
2023-03-16T20:45:59.579Z,0.80
2023-03-16T20:49:04.388Z,0.90
2023-03-16T20:52:15.342Z,0.65
2023-03-16T20:55:19.707Z,1.23
2023-03-16T20:58:24.425Z,1.25
2023-03-16T21:01:28.234Z,0.98
2023-03-16T21:04:33.188Z,0.85
2023-03-16T21:07:36.562Z,1.00
2023-03-16T21:10:40.140Z,0.88
2023-03-16T21:13:43.628Z,1.00
2023-03-16T21:16:49.587Z,0.70
2023-03-16T21:19:54.430Z,1.27
2023-03-16T21:22:57.899Z,0.93
2023-03-16T21:26:09.380Z,1.15
2023-03-16T21:29:21.696Z,0.50
2023-03-16T21:32:26.478Z,0.93
2023-03-16T21:35:33.311Z,1.13
2023-03-16T21:38:37.904Z,1.20
2023-03-16T21:41:41.723Z,1.13
2023-03-16T21:44:45.532Z,0.95
2023-03-16T21:47:48.977Z,1.00
2023-03-16T21:50:54.448Z,1.67
2023-03-16T21:53:57.956Z,1.63
2023-03-16T21:57:02.907Z,1.13
2023-03-16T22:00:06.844Z,1.27
2023-03-16T22:03:20.769Z,1.13
2023-03-16T22:06:27.751Z,1.13
2023-03-16T22:09:32.794Z,1.15
2023-03-16T22:12:36.158Z,1.17
2023-03-16T22:15:40.044Z,1.17
2023-03-16T22:18:43.729Z,1.08
2023-03-16T22:21:49.851Z,1.10
2023-03-16T22:24:53.881Z,1.00
2023-03-16T22:27:57.944Z,1.15
2023-03-16T22:31:03.352Z,1.05
2023-03-16T22:34:06.904Z,1.25
2023-03-16T22:37:12.131Z,1.10
2023-03-16T22:40:17.577Z,1.15
2023-03-16T22:43:22.429Z,1.17
2023-03-16T22:46:26.728Z,1.20
2023-03-16T22:49:30.061Z,1.05
2023-03-16T22:52:37.104Z,1.00
2023-03-16T22:55:41.280Z,1.00
2023-03-16T22:58:45.723Z,0.90
2023-03-16T23:01:50.457Z,0.85
2023-03-16T23:04:53.809Z,1.38
2023-03-16T23:08:00.700Z,1.30
2023-03-16T23:11:05.240Z,1.25
2023-03-16T23:14:13.580Z,1.08
2023-03-16T23:17:18.600Z,1.23
2023-03-16T23:20:23.286Z,1.27
2023-03-16T23:23:27.941Z,1.10
2023-03-16T23:26:31.243Z,1.40
2023-03-16T23:29:34.506Z,1.10
2023-03-16T23:32:37.871Z,1.15
2023-03-16T23:35:41.724Z,1.50
2023-03-16T23:38:46.462Z,1.00
2023-03-16T23:41:52.191Z,1.02
2023-03-16T23:44:55.851Z,1.23
2023-03-16T23:48:00.430Z,1.13
2023-03-16T23:51:04.597Z,1.20
2023-03-16T23:54:15.377Z,1.17
2023-03-16T23:57:18.681Z,1.20
